Time;durP1;ratioP1;P1;durP2;ratioP2;P2;SDS_P1;SDS_P2;PMS_P1;PMS_P2;Temp;Humidity;BMP_temperature;BMP_pressure;BME280_temperature;BME280_humidity;BME280_pressure;Samples;Min_cycle;Max_cycle;Signal;HPM_P1;HPM_P2
2023/01/02 00:00:37;;;;;;;71.20;37.30;;;;;;;5.86;90.08;99130.63;102846;1314;24368;-80
2023/01/02 00:03:22;;;;;;;71.30;38.70;;;;;;;5.78;90.04;99123.96;103072;1313;22545;-80
2023/01/02 00:05:49;;;;;;;73.10;37.40;;;;;;;5.69;89.95;99119.41;102965;1295;137724;-80
2023/01/02 00:08:17;;;;;;;68.40;37.40;;;;;;;5.62;90.02;99117.66;102832;1316;22502;-80
2023/01/02 00:10:43;;;;;;;71.80;38.70;;;;;;;5.55;90.06;99115.20;102779;1307;137755;-80
2023/01/02 00:13:11;;;;;;;76.80;39.80;;;;;;;5.47;90.40;99112.60;102704;1309;22484;-79
2023/01/02 00:15:37;;;;;;;73.50;40.20;;;;;;;5.40;90.39;99113.30;102966;1310;22909;-80
2023/01/02 00:18:04;;;;;;;75.50;39.10;;;;;;;5.33;90.43;99110.23;102832;1314;137923;-80
2023/01/02 00:20:32;;;;;;;77.10;40.70;;;;;;;5.27;90.63;99112.39;102777;1307;22508;-80
2023/01/02 00:23:01;;;;;;;76.70;39.90;;;;;;;5.21;90.73;99114.16;102668;1301;137796;-81
2023/01/02 00:25:27;;;;;;;85.20;45.50;;;;;;;5.16;90.96;99108.36;103368;1298;24341;-80
2023/01/02 00:27:55;;;;;;;86.40;46.00;;;;;;;5.12;91.11;99108.79;102928;1308;22686;-80
2023/01/02 00:30:22;;;;;;;87.00;46.80;;;;;;;5.09;91.49;99106.25;103039;1308;138378;-80
2023/01/02 00:32:49;;;;;;;84.20;46.00;;;;;;;5.05;91.58;99107.92;102949;1308;22467;-80
2023/01/02 00:35:16;;;;;;;83.60;44.70;;;;;;;5.02;91.66;99113.58;102686;1301;137907;-80
2023/01/02 00:37:43;;;;;;;82.70;46.10;;;;;;;4.98;91.68;99116.40;102850;1303;23146;-80
2023/01/02 00:40:12;;;;;;;81.40;45.20;;;;;;;4.94;91.61;99115.24;102565;1316;138363;-80
2023/01/02 00:42:40;;;;;;;84.60;45.80;;;;;;;4.90;91.55;99117.20;103123;1308;22641;-80
2023/01/02 00:45:08;;;;;;;88.20;45.90;;;;;;;4.86;91.62;99116.41;102813;1315;22489;-80
2023/01/02 00:47:36;;;;;;;85.60;47.30;;;;;;;4.81;91.46;99107.97;103346;1295;138115;-80
2023/01/02 00:50:03;;;;;;;86.30;49.10;;;;;;;4.76;91.60;99114.27;103228;1304;22496;-80
2023/01/02 00:52:30;;;;;;;91.40;48.30;;;;;;;4.72;91.71;99112.45;103139;1306;139979;-79
2023/01/02 00:54:57;;;;;;;89.60;49.30;;;;;;;4.68;91.65;99111.36;102852;1305;25218;-80
2023/01/02 00:57:24;;;;;;;90.70;50.00;;;;;;;4.65;92.01;99109.50;102997;1294;22343;-80
2023/01/02 00:59:51;;;;;;;81.20;42.90;;;;;;;4.64;92.30;99110.06;102847;1311;137731;-79
2023/01/02 01:02:17;;;;;;;77.60;40.70;;;;;;;4.63;92.92;99108.73;102731;1306;23923;-80
2023/01/02 01:04:44;;;;;;;78.20;41.80;;;;;;;4.63;93.60;99106.91;102875;1307;138168;-79
2023/01/02 01:07:11;;;;;;;86.70;42.60;;;;;;;4.63;93.71;99108.57;102783;1297;22532;-80
2023/01/02 01:09:38;;;;;;;76.80;37.50;;;;;;;4.62;93.76;99107.27;103806;1316;24425;-80
2023/01/02 01:12:05;;;;;;;71.40;36.60;;;;;;;4.62;94.07;99106.99;102647;1307;137756;-80
2023/01/02 01:14:32;;;;;;;78.60;41.20;;;;;;;4.63;94.32;99105.08;103295;1306;23851;-80
2023/01/02 01:16:59;;;;;;;77.30;40.30;;;;;;;4.65;94.51;99105.15;103660;1315;137743;-80
2023/01/02 01:19:30;;;;;;;87.20;45.40;;;;;;;4.67;94.68;99103.50;103480;1313;22208;-81
2023/01/02 01:21:57;;;;;;;85.90;46.40;;;;;;;4.68;94.73;99102.61;102839;1299;22478;-80
2023/01/02 01:24:25;;;;;;;92.30;49.50;;;;;;;4.68;94.70;99098.70;102811;1309;138072;-80
2023/01/02 01:26:52;;;;;;;93.10;48.30;;;;;;;4.69;94.64;99099.10;103005;1307;22947;-80
2023/01/02 01:29:18;;;;;;;93.60;48.20;;;;;;;4.67;94.58;99101.14;103659;1309;138351;-80
2023/01/02 01:31:45;;;;;;;95.10;48.90;;;;;;;4.65;94.61;99097.09;102714;1295;25303;-80
2023/01/02 01:34:13;;;;;;;92.40;48.50;;;;;;;4.62;94.57;99092.24;102648;1293;137981;-80
2023/01/02 01:36:40;;;;;;;81.30;45.60;;;;;;;4.60;94.55;99095.66;102924;1292;22526;-80
2023/01/02 01:39:07;;;;;;;75.50;40.60;;;;;;;4.54;94.39;99091.59;102873;1293;22477;-80
2023/01/02 01:41:34;;;;;;;71.50;38.30;;;;;;;4.50;94.09;99096.27;102645;1307;137945;-80
2023/01/02 01:44:02;;;;;;;69.30;37.20;;;;;;;4.44;93.94;99085.27;103031;1306;22518;-80
2023/01/02 01:46:41;;;;;;;67.30;36.70;;;;;;;4.38;93.71;99080.44;102643;1315;137956;-80
2023/01/02 01:49:25;;;;;;;74.60;40.50;;;;;;;4.33;93.65;99081.13;102819;1314;23201;-80
2023/01/02 01:52:00;;;;;;;72.20;38.20;;;;;;;4.28;93.78;99076.55;102726;1299;22481;-79
2023/01/02 01:54:35;;;;;;;72.50;38.60;;;;;;;4.24;94.05;99071.27;102864;1291;25291;-79
2023/01/02 01:57:08;;;;;;;76.30;39.30;;;;;;;4.22;94.32;99076.93;103320;1316;22478;-80
2023/01/02 01:59:35;;;;;;;76.80;38.80;;;;;;;4.18;94.35;99069.83;102875;1316;137841;-80
2023/01/02 02:02:02;;;;;;;68.60;36.30;;;;;;;4.15;94.47;99069.60;103179;1317;24260;-79
2023/01/02 02:04:29;;;;;;;65.40;36.00;;;;;;;4.13;94.57;99065.02;102880;1300;138099;-80
2023/01/02 02:06:56;;;;;;;68.70;37.60;;;;;;;4.11;94.58;99061.09;102802;1305;25200;-80
2023/01/02 02:09:33;;;;;;;69.20;34.70;;;;;;;4.10;94.82;99064.67;102895;1314;22565;-80
2023/01/02 02:12:01;;;;;;;68.30;36.80;;;;;;;4.10;95.11;99067.75;102598;1298;137774;-80
2023/01/02 02:14:28;;;;;;;69.70;37.40;;;;;;;4.10;95.55;99070.60;102943;1312;22475;-80
2023/01/02 02:16:58;;;;;;;64.60;35.70;;;;;;;4.12;95.82;99070.38;102794;1298;138917;-79
2023/01/02 02:19:54;;;;;;;63.50;34.80;;;;;;;4.12;95.93;99067.14;102837;1303;22511;-79
2023/01/02 02:22:45;;;;;;;61.30;32.70;;;;;;;4.10;95.62;99063.80;102857;1316;137861;-80
2023/01/02 02:25:39;;;;;;;62.70;33.50;;;;;;;4.08;95.84;99069.72;103038;1298;22504;-80
2023/01/02 02:28:24;;;;;;;56.00;32.60;;;;;;;4.07;95.70;99066.34;102656;1295;138566;-79
2023/01/02 02:31:02;;;;;;;66.70;34.20;;;;;;;4.04;95.50;99058.79;102695;1314;22492;-80
2023/01/02 02:33:45;;;;;;;74.30;32.50;;;;;;;4.02;95.86;99061.55;102912;1298;22534;-79
2023/01/02 02:36:29;;;;;;;64.50;33.80;;;;;;;4.00;95.86;99061.36;102798;1316;137905;-80
2023/01/02 02:39:15;;;;;;;66.50;34.00;;;;;;;3.98;95.98;99063.41;103425;1292;22472;-80
2023/01/02 02:41:54;;;;;;;63.50;33.10;;;;;;;3.96;95.71;99064.25;103819;1293;138247;-80
2023/01/02 02:44:48;;;;;;;58.20;32.80;;;;;;;3.93;95.58;99058.66;102876;1298;23005;-80
2023/01/02 02:47:33;;;;;;;59.30;30.20;;;;;;;3.90;95.70;99053.44;102797;1291;137745;-80
2023/01/02 02:50:09;;;;;;;61.90;31.40;;;;;;;3.88;95.95;99044.53;102859;1302;22478;-80
2023/01/02 02:52:53;;;;;;;59.80;31.20;;;;;;;3.87;96.24;99043.20;102989;1302;139565;-79
2023/01/02 02:55:22;;;;;;;64.70;31.50;;;;;;;3.87;96.66;99038.72;102946;1316;25399;-80
2023/01/02 02:57:50;;;;;;;61.40;30.60;;;;;;;3.88;96.78;99041.31;102955;1292;22524;-80
2023/01/02 03:00:21;;;;;;;52.40;29.70;;;;;;;3.88;96.70;99037.53;102957;1298;138097;-80
2023/01/02 03:02:48;;;;;;;67.80;33.50;;;;;;;3.85;96.22;99042.77;102983;1292;25333;-80
2023/01/02 03:05:29;;;;;;;59.00;31.40;;;;;;;3.78;95.49;99045.36;102527;1302;137857;-80
2023/01/02 03:08:15;;;;;;;52.40;29.50;;;;;;;3.69;95.06;99041.96;102677;1294;22496;-80
2023/01/02 03:10:51;;;;;;;57.60;31.50;;;;;;;3.55;94.48;99046.88;102587;1307;138343;-79
2023/01/02 03:13:54;;;;;;;59.00;32.70;;;;;;;3.48;94.70;99047.62;102763;1307;22612;-79
2023/01/02 03:16:50;;;;;;;54.10;30.70;;;;;;;3.40;95.19;99046.89;102786;1297;139004;-80
2023/01/02 03:19:26;;;;;;;59.20;31.40;;;;;;;3.36;95.52;99043.10;102612;1298;25307;-80
2023/01/02 03:22:00;;;;;;;54.40;29.10;;;;;;;3.34;95.66;99043.90;102804;1297;22545;-80
2023/01/02 03:24:29;;;;;;;56.70;29.10;;;;;;;3.31;95.67;99044.54;102891;1308;138894;-80
2023/01/02 03:27:03;;;;;;;58.20;30.00;;;;;;;3.30;95.68;99047.98;102584;1303;23882;-80
2023/01/02 03:29:37;;;;;;;59.00;29.10;;;;;;;3.29;95.88;99048.50;102708;1301;137749;-80
2023/01/02 03:32:11;;;;;;;58.70;30.10;;;;;;;3.28;96.26;99050.73;102673;1300;22490;-80
2023/01/02 03:34:42;;;;;;;58.30;29.70;;;;;;;3.29;96.74;99046.77;102639;1295;138147;-80
2023/01/02 03:37:14;;;;;;;56.10;30.30;;;;;;;3.31;97.19;99041.67;103074;1290;24276;-80
2023/01/02 03:39:48;;;;;;;56.40;27.00;;;;;;;3.34;97.72;99042.05;103574;1301;22505;-79
2023/01/02 03:42:28;;;;;;;61.70;30.50;;;;;;;3.37;97.73;99038.82;103263;1299;140323;-80
2023/01/02 03:44:58;;;;;;;55.70;28.70;;;;;;;3.39;97.71;99038.56;103803;1307;22491;-80
2023/01/02 03:47:38;;;;;;;59.00;30.40;;;;;;;3.41;97.63;99035.35;102561;1293;139340;-80
2023/01/02 03:50:11;;;;;;;63.80;33.00;;;;;;;3.39;97.57;99031.73;103474;1311;22506;-80
2023/01/02 03:52:38;;;;;;;56.30;30.30;;;;;;;3.39;97.44;99029.41;103240;1294;138860;-80
2023/01/02 03:55:06;;;;;;;62.90;31.00;;;;;;;3.38;97.53;99034.20;103400;1301;22353;-81
2023/01/02 03:57:44;;;;;;;56.70;29.50;;;;;;;3.36;97.39;99033.91;103044;1299;25248;-82
2023/01/02 04:00:16;;;;;;;61.70;31.40;;;;;;;3.37;97.72;99032.42;103034;1315;137732;-80
2023/01/02 04:02:51;;;;;;;58.80;30.20;;;;;;;3.37;97.84;99034.58;103125;1310;23099;-81
2023/01/02 04:05:50;;;;;;;57.50;29.80;;;;;;;3.35;97.27;99031.58;102633;1301;138593;-80
2023/01/02 04:08:27;;;;;;;53.50;28.70;;;;;;;3.32;97.25;99025.23;102622;1317;23099;-81
2023/01/02 04:10:59;;;;;;;54.80;29.20;;;;;;;3.30;97.15;99017.80;102510;1298;139409;-80
2023/01/02 04:13:32;;;;;;;57.50;29.80;;;;;;;3.28;97.25;99015.41;102045;1303;22539;-81
2023/01/02 04:16:03;;;;;;;58.50;30.20;;;;;;;3.26;97.12;99018.31;102347;1314;24384;-80
2023/01/02 04:18:34;;;;;;;59.80;30.90;;;;;;;3.25;97.44;99018.08;102476;1307;141970;-81
2023/01/02 04:21:10;;;;;;;58.90;32.10;;;;;;;3.24;97.48;99018.29;102579;1307;22477;-80
2023/01/02 04:23:45;;;;;;;60.60;30.90;;;;;;;3.25;97.85;99024.30;102937;1310;138619;-80
2023/01/02 04:26:26;;;;;;;59.50;31.10;;;;;;;3.25;97.94;99020.70;102294;1304;23214;-80
2023/01/02 04:28:53;;;;;;;66.00;33.00;;;;;;;3.24;97.77;99020.45;102192;1303;138924;-80
2023/01/02 04:31:27;;;;;;;63.30;33.30;;;;;;;3.23;97.67;99018.61;102339;1297;22714;-81
2023/01/02 04:33:57;;;;;;;63.10;33.60;;;;;;;3.22;97.88;99018.69;102361;1313;24291;-80
2023/01/02 04:36:24;;;;;;;77.90;38.30;;;;;;;3.21;97.87;99025.08;102277;1319;138053;-80
2023/01/02 04:38:51;;;;;;;79.80;39.80;;;;;;;3.21;98.22;99025.99;102387;1296;23233;-80
2023/01/02 04:41:28;;;;;;;75.80;37.10;;;;;;;3.22;98.33;99027.73;102276;1298;138142;-81
2023/01/02 04:43:56;;;;;;;67.30;39.00;;;;;;;3.19;97.86;99026.08;102335;1297;22541;-79
2023/01/02 04:46:24;;;;;;;69.40;37.10;;;;;;;3.18;97.91;99032.90;102798;1301;137972;-80
2023/01/02 04:48:52;;;;;;;72.50;38.60;;;;;;;3.15;97.99;99031.36;102742;1310;22632;-80
2023/01/02 04:51:19;;;;;;;78.80;40.10;;;;;;;3.14;97.96;99028.52;102626;1316;24327;-79
2023/01/02 04:53:48;;;;;;;70.40;39.80;;;;;;;3.12;97.99;99023.77;102551;1292;137733;-82
2023/01/02 04:56:15;;;;;;;80.20;41.00;;;;;;;3.10;97.96;99019.23;103021;1301;25443;-81
2023/01/02 04:58:44;;;;;;;74.40;39.80;;;;;;;3.08;97.85;99016.67;103051;1292;137978;-81
2023/01/02 05:01:14;;;;;;;78.80;41.10;;;;;;;3.06;98.14;99009.36;103500;1291;22872;-80
2023/01/02 05:03:43;;;;;;;82.20;44.20;;;;;;;3.06;98.24;99008.16;103471;1308;22557;-80
2023/01/02 05:06:11;;;;;;;90.40;44.70;;;;;;;3.06;98.61;99009.48;103090;1306;137735;-80
2023/01/02 05:08:39;;;;;;;83.00;43.30;;;;;;;3.08;99.14;99004.60;102701;1305;23879;-80
2023/01/02 05:11:08;;;;;;;78.40;43.00;;;;;;;3.11;99.03;99002.34;102737;1294;138384;-80
2023/01/02 05:13:35;;;;;;;80.60;40.50;;;;;;;3.11;98.97;98998.92;103510;1295;29182;-80
2023/01/02 05:16:02;;;;;;;80.60;41.90;;;;;;;3.09;98.48;98992.14;103030;1295;22328;-80
2023/01/02 05:18:30;;;;;;;78.90;40.50;;;;;;;3.08;98.38;98988.99;103258;1299;138531;-80
2023/01/02 05:24:02;;;;;;;83.10;41.40;;;;;;;3.06;98.67;98989.28;103263;1308;138249;-80
2023/01/02 05:26:32;;;;;;;69.60;37.80;;;;;;;3.06;98.91;98988.98;103375;1292;30040;-79
2023/01/02 05:28:59;;;;;;;71.90;38.20;;;;;;;3.06;98.94;98979.42;102566;1292;138200;-80
2023/01/02 05:31:27;;;;;;;70.30;35.70;;;;;;;3.06;99.03;98975.81;102727;1308;22576;-80
2023/01/02 05:33:56;;;;;;;71.60;36.00;;;;;;;3.06;99.24;98968.42;102693;1305;25699;-81
2023/01/02 05:36:24;;;;;;;;;;;;;;;3.07;99.26;98969.44;103229;1302;138233;-81
2023/01/02 05:38:52;;;;;;;59.00;31.50;;;;;;;3.06;99.39;98963.86;102584;1308;22582;-80
2023/01/02 05:41:20;;;;;;;72.50;34.70;;;;;;;3.07;99.80;98961.39;102773;1314;141135;-80
2023/01/02 05:43:47;;;;;;;62.40;32.90;;;;;;;3.08;99.67;98960.39;102795;1304;25443;-80
2023/01/02 05:46:19;;;;;;;62.40;31.90;;;;;;;3.10;99.98;98961.19;102608;1287;138020;-80
2023/01/02 05:48:46;;;;;;;61.60;31.40;;;;;;;3.12;99.97;98965.02;102590;1294;22523;-80
2023/01/02 05:51:15;;;;;;;66.70;34.00;;;;;;;3.13;99.98;98964.25;103015;1290;24295;-81
2023/01/02 05:53:43;;;;;;;65.80;33.20;;;;;;;3.13;99.75;98962.64;103512;1291;137949;-81
2023/01/02 05:56:15;;;;;;;56.00;32.30;;;;;;;3.08;99.10;98959.96;102604;1300;24245;-80
2023/01/02 05:58:45;;;;;;;61.20;31.90;;;;;;;3.02;98.63;98961.07;102878;1294;139373;-81
2023/01/02 06:01:18;;;;;;;69.10;33.00;;;;;;;2.94;98.32;98959.80;102564;1294;22550;-80
2023/01/02 06:03:50;;;;;;;63.70;31.00;;;;;;;2.92;98.68;98963.56;102835;1300;22506;-80
2023/01/02 06:06:19;;;;;;;60.90;31.50;;;;;;;2.90;99.19;98960.55;102612;1293;138295;-80
2023/01/02 06:08:46;;;;;;;63.90;32.80;;;;;;;2.88;99.38;98959.66;102706;1294;23947;-81
2023/01/02 06:11:13;;;;;;;65.40;33.70;;;;;;;2.90;99.74;98962.99;102800;1300;138590;-80
2023/01/02 06:13:42;;;;;;;59.50;30.70;;;;;;;2.91;99.92;98960.38;102789;1307;22908;-80
2023/01/02 06:16:09;;;;;;;63.50;31.60;;;;;;;2.93;99.92;98962.50;102906;1286;22532;-80
2023/01/02 06:18:37;;;;;;;61.90;32.20;;;;;;;2.95;99.94;98966.73;102486;1315;24318;-81
2023/01/02 06:21:07;;;;;;;66.60;33.20;;;;;;;2.97;100.00;98965.72;102678;1308;24401;-81
2023/01/02 06:23:34;;;;;;;;;;;;;;;3.00;100.00;98970.27;102822;1295;138125;-81
2023/01/02 06:26:09;;;;;;;59.60;29.90;;;;;;;3.01;100.00;98971.39;102704;1316;24368;-80
2023/01/02 06:28:38;;;;;;;56.50;28.40;;;;;;;3.03;100.00;98969.33;103589;1295;138202;-80
2023/01/02 06:31:08;;;;;;;55.30;28.80;;;;;;;3.06;100.00;98967.02;103062;1292;23268;-81
2023/01/02 06:33:36;;;;;;;55.80;28.10;;;;;;;3.10;100.00;98965.98;103304;1294;24062;-81
2023/01/02 06:36:05;;;;;;;55.80;26.80;;;;;;;3.14;100.00;98972.17;103976;1294;138613;-80
2023/01/02 06:38:33;;;;;;;45.00;24.70;;;;;;;3.19;100.00;98973.19;105627;1305;22353;-81
2023/01/02 06:41:01;;;;;;;47.50;25.90;;;;;;;3.24;100.00;98976.71;104759;1295;137995;-81
2023/01/02 06:43:29;;;;;;;54.40;25.70;;;;;;;3.29;100.00;98977.70;104286;1295;23327;-80
2023/01/02 06:45:57;;;;;;;51.70;27.00;;;;;;;3.34;100.00;98980.95;102989;1290;25080;-80
2023/01/02 06:48:25;;;;;;;54.40;26.00;;;;;;;3.37;100.00;98982.09;102522;1315;137961;-81
2023/01/02 06:50:53;;;;;;;52.50;25.40;;;;;;;3.40;100.00;98982.98;103050;1309;22507;-81
2023/01/02 06:53:19;;;;;;;41.70;23.20;;;;;;;3.42;100.00;98985.49;102615;1291;138411;-80
2023/01/02 06:55:55;;;;;;;42.80;23.10;;;;;;;3.44;100.00;98987.44;102941;1315;24331;-81
2023/01/02 06:58:23;;;;;;;42.00;21.80;;;;;;;3.44;100.00;98989.00;102526;1297;220833;-81
2023/01/02 07:00:51;;;;;;;41.50;21.10;;;;;;;3.45;100.00;98996.27;103317;1309;22533;-80
2023/01/02 07:03:18;;;;;;;44.80;23.40;;;;;;;3.46;100.00;98995.27;102714;1301;25750;-81
2023/01/02 07:05:45;;;;;;;42.50;21.80;;;;;;;3.47;100.00;98995.70;102945;1297;138960;-80
2023/01/02 07:08:13;;;;;;;40.30;19.80;;;;;;;3.47;100.00;98989.55;102665;1311;23889;-80
2023/01/02 07:10:39;;;;;;;42.10;21.20;;;;;;;3.50;100.00;98990.21;102698;1292;138294;-80
2023/01/02 07:13:06;;;;;;;39.70;20.30;;;;;;;3.54;100.00;98989.89;102888;1301;25475;-80
2023/01/02 07:15:33;;;;;;;38.50;20.60;;;;;;;3.58;100.00;98991.73;103114;1295;25370;-80
2023/01/02 07:18:00;;;;;;;31.50;16.20;;;;;;;3.62;100.00;98989.54;102750;1295;139414;-80
2023/01/02 07:20:27;;;;;;;34.30;18.70;;;;;;;3.67;100.00;98985.50;102917;1287;22490;-80
2023/01/02 07:22:54;;;;;;;38.40;19.50;;;;;;;3.72;100.00;98989.00;102869;1290;139537;-79
2023/01/02 07:25:21;;;;;;;34.20;17.30;;;;;;;3.76;100.00;98985.25;102950;1308;24253;-79
2023/01/02 07:27:48;;;;;;;32.40;16.80;;;;;;;3.83;100.00;98983.05;103998;1295;22539;-80
2023/01/02 07:30:15;;;;;;;27.50;15.40;;;;;;;3.92;100.00;98985.48;103221;1292;138088;-80
2023/01/02 07:32:42;;;;;;;32.30;15.30;;;;;;;4.00;100.00;98984.50;102789;1301;26151;-80
2023/01/02 07:35:09;;;;;;;29.50;14.60;;;;;;;4.09;100.00;98984.55;102647;1298;138242;-79
2023/01/02 07:37:37;;;;;;;28.10;14.90;;;;;;;4.17;100.00;98988.73;102922;1292;22482;-79
2023/01/02 07:40:04;;;;;;;31.70;17.20;;;;;;;4.26;100.00;98988.17;103481;1292;22477;-79
2023/01/02 07:42:31;;;;;;;33.80;17.40;;;;;;;4.33;100.00;98993.03;103436;1311;138160;-81
2023/01/02 07:44:58;;;;;;;37.00;19.70;;;;;;;4.39;100.00;98993.34;103416;1303;25260;-80
2023/01/02 07:47:25;;;;;;;37.50;20.50;;;;;;;4.42;100.00;98994.81;103363;1294;137921;-80
2023/01/02 07:49:52;;;;;;;37.70;21.50;;;;;;;4.43;100.00;98989.48;103512;1315;22253;-80
2023/01/02 07:52:19;;;;;;;37.30;21.20;;;;;;;4.43;99.99;98982.21;102931;1293;140142;-80
2023/01/02 07:54:46;;;;;;;49.00;25.00;;;;;;;4.45;99.99;98982.05;102942;1292;23082;-80
2023/01/02 07:57:13;;;;;;;43.20;24.40;;;;;;;4.45;99.79;98982.39;102576;1293;22493;-79
2023/01/02 07:59:39;;;;;;;41.80;23.10;;;;;;;4.44;99.49;98979.08;103066;1309;138627;-80
2023/01/02 08:02:09;;;;;;;39.80;23.30;;;;;;;4.46;99.37;98981.54;103077;1295;24263;-80
2023/01/02 08:04:36;;;;;;;38.30;22.30;;;;;;;4.45;98.81;98980.23;102572;1293;139264;-80
2023/01/02 08:07:03;;;;;;;38.50;22.70;;;;;;;4.42;98.18;98979.18;103129;1301;22651;-80
2023/01/02 08:09:30;;;;;;;39.90;22.70;;;;;;;4.42;98.46;98979.65;104040;1288;24401;-80
2023/01/02 08:11:57;;;;;;;41.30;22.10;;;;;;;4.46;99.06;98980.50;104247;1316;139736;-80
2023/01/02 08:14:24;;;;;;;35.50;19.00;;;;;;;4.50;99.18;98976.71;103027;1308;24254;-80
2023/01/02 08:16:50;;;;;;;42.30;22.30;;;;;;;4.56;99.51;98978.31;102788;1293;137892;-79
2023/01/02 08:19:17;;;;;;;42.30;22.10;;;;;;;4.63;99.96;98978.84;103050;1292;24280;-79
2023/01/02 08:21:44;;;;;;;39.90;22.10;;;;;;;4.70;100.00;98986.00;102952;1300;23375;-79
2023/01/02 08:24:11;;;;;;;42.50;22.40;;;;;;;4.78;100.00;98986.52;102616;1316;140253;-80
2023/01/02 08:26:38;;;;;;;41.60;24.00;;;;;;;4.84;99.97;98988.06;105602;1293;25370;-80
2023/01/02 08:29:07;;;;;;;38.50;22.50;;;;;;;4.88;99.68;98984.81;102689;1294;137769;-79
2023/01/02 08:31:35;;;;;;;44.90;27.10;;;;;;;4.93;99.71;98988.38;102745;1294;23391;-81
2023/01/02 08:34:01;;;;;;;48.60;27.00;;;;;;;4.91;98.50;98991.70;102943;1292;22613;-80
2023/01/02 08:36:28;;;;;;;40.90;25.80;;;;;;;4.88;97.66;98996.73;102805;1315;137903;-79
2023/01/02 08:38:55;;;;;;;43.60;25.50;;;;;;;4.86;97.83;98994.99;102957;1299;22600;-80
2023/01/02 08:41:34;;;;;;;38.50;24.10;;;;;;;4.87;97.93;98994.81;102869;1297;141031;-80
2023/01/02 08:44:01;;;;;;;44.80;25.40;;;;;;;4.88;98.16;98991.63;102959;1294;25346;-80
2023/01/02 08:46:30;;;;;;;49.60;25.90;;;;;;;4.91;98.21;98991.19;102694;1295;139593;-80
2023/01/02 08:48:57;;;;;;;50.80;26.60;;;;;;;4.94;98.31;98993.14;102695;1309;22483;-80
2023/01/02 08:51:25;;;;;;;58.20;31.30;;;;;;;4.95;97.91;98992.05;102960;1294;23889;-79
2023/01/02 08:53:52;;;;;;;62.20;32.10;;;;;;;4.92;96.67;98990.29;103089;1308;138244;-80
2023/01/02 08:56:28;;;;;;;51.40;30.60;;;;;;;4.86;95.98;98986.25;103667;1291;23317;-79
2023/01/02 08:58:58;;;;;;;51.70;29.80;;;;;;;4.82;96.28;98982.73;103166;1316;139496;-80
2023/01/02 09:01:27;;;;;;;47.60;29.10;;;;;;;4.83;96.75;98977.39;104063;1292;22496;-80
2023/01/02 09:03:55;;;;;;;48.80;29.10;;;;;;;4.84;96.94;98975.69;102832;1310;22616;-80
2023/01/02 09:06:24;;;;;;;46.40;26.20;;;;;;;4.86;97.08;98972.14;104117;1316;138879;-80
2023/01/02 09:08:54;;;;;;;40.60;23.30;;;;;;;4.91;98.22;98968.78;103277;1287;22780;-80
2023/01/02 09:11:26;;;;;;;43.70;23.80;;;;;;;5.07;98.29;98967.19;103999;1294;138235;-81
2023/01/02 09:13:54;;;;;;;40.20;23.40;;;;;;;5.12;97.42;98964.73;103287;1287;22532;-80
2023/01/02 09:16:22;;;;;;;37.90;22.60;;;;;;;5.14;97.47;98958.34;102928;1297;139385;-80
2023/01/02 09:18:49;;;;;;;39.20;23.90;;;;;;;5.19;97.59;98957.92;102932;1301;24260;-80
2023/01/02 09:21:17;;;;;;;44.50;24.60;;;;;;;5.22;97.64;98952.05;102973;1308;22864;-80
2023/01/02 09:23:44;;;;;;;42.20;23.80;;;;;;;5.28;97.91;98950.05;102614;1303;137772;-79
2023/01/02 09:26:12;;;;;;;43.40;24.20;;;;;;;5.34;98.14;98943.35;102921;1316;25315;-80
2023/01/02 09:28:39;;;;;;;46.80;25.40;;;;;;;5.41;98.36;98943.48;102759;1293;139008;-80
2023/01/02 09:31:08;;;;;;;40.60;23.60;;;;;;;5.46;98.32;98942.95;102986;1287;24452;-80
2023/01/02 09:33:38;;;;;;;42.40;24.80;;;;;;;5.53;98.45;98943.41;102785;1300;24045;-80
2023/01/02 09:36:08;;;;;;;46.00;24.40;;;;;;;5.59;98.63;98940.95;102705;1292;138230;-80
2023/01/02 09:38:36;;;;;;;42.70;23.60;;;;;;;5.65;98.60;98934.41;102937;1287;22541;-80
2023/01/02 09:41:31;;;;;;;47.50;27.40;;;;;;;5.71;98.51;98928.98;102622;1292;137875;-80
2023/01/02 09:44:04;;;;;;;53.70;27.10;;;;;;;5.77;98.30;98918.31;105403;1292;24679;-80
2023/01/02 09:46:40;;;;;;;53.40;29.50;;;;;;;5.84;98.24;98915.39;103446;1309;138494;-80
2023/01/02 09:49:15;;;;;;;54.70;28.90;;;;;;;5.91;98.48;98916.66;103702;1301;22480;-80
2023/01/02 09:51:43;;;;;;;44.30;24.30;;;;;;;5.97;98.70;98918.58;103845;1307;25563;-80
2023/01/02 09:54:17;;;;;;;49.70;26.50;;;;;;;6.04;98.35;98915.44;103623;1301;140625;-80
2023/01/02 09:56:48;;;;;;;46.50;25.40;;;;;;;6.12;98.56;98911.87;106004;1310;22327;-80
2023/01/02 09:59:42;;;;;;;49.80;27.00;;;;;;;6.22;98.43;98907.10;102819;1304;137942;-80
2023/01/02 10:02:54;;;;;;;54.30;30.50;;;;;;;6.37;98.94;98906.22;102943;1294;23242;-79
2023/01/02 10:05:30;;;;;;;62.50;35.30;;;;;;;6.52;98.67;98896.94;102287;1298;138360;-80
2023/01/02 10:08:34;;;;;;;58.10;34.40;;;;;;;6.66;98.60;98904.80;101943;1306;24405;-79
2023/01/02 10:11:22;;;;;;;50.70;29.30;;;;;;;6.82;98.33;98903.30;102075;1296;139702;-80
2023/01/02 10:13:59;;;;;;;58.20;34.40;;;;;;;6.95;97.60;98900.79;102259;1291;22493;-80
2023/01/02 10:16:41;;;;;;;47.60;27.20;;;;;;;7.06;96.94;98900.59;101979;1297;138066;-79
2023/01/02 10:19:18;;;;;;;59.20;34.30;;;;;;;7.23;97.17;98897.39;102484;1315;25577;-80
2023/01/02 10:21:48;;;;;;;64.10;34.10;;;;;;;7.38;96.93;98886.64;102198;1318;25348;-80
2023/01/02 10:24:24;;;;;;;63.70;34.30;;;;;;;7.51;96.77;98879.66;102022;1307;138093;-80
2023/01/02 10:26:52;;;;;;;55.00;33.70;;;;;;;7.63;96.21;98877.03;102238;1315;22602;-80
2023/01/02 10:29:30;;;;;;;59.80;34.30;;;;;;;7.72;95.35;98873.02;102009;1301;138248;-80
2023/01/02 10:31:59;;;;;;;61.20;33.80;;;;;;;7.82;94.90;98874.40;102091;1317;22487;-80
2023/01/02 10:34:41;;;;;;;59.40;32.60;;;;;;;7.91;95.03;98874.81;102404;1315;138349;-80
2023/01/02 10:37:13;;;;;;;59.90;33.80;;;;;;;8.01;94.96;98873.76;102011;1310;24445;-80
2023/01/02 10:39:43;;;;;;;60.40;32.50;;;;;;;8.10;94.87;98869.69;102379;1298;22547;-80
2023/01/02 10:42:14;;;;;;;59.30;34.30;;;;;;;8.20;94.34;98863.61;102112;1305;137863;-80
2023/01/02 10:44:44;;;;;;;54.10;31.90;;;;;;;8.28;93.65;98857.38;103877;1292;25370;-80
2023/01/02 10:47:23;;;;;;;;;;;;;;;8.34;93.31;98855.86;103136;1301;138197;-80
2023/01/02 10:49:51;;;;;;;50.70;31.10;;;;;;;8.41;92.91;98853.31;103387;1306;22514;-80
2023/01/02 10:52:22;;;;;;;55.50;31.00;;;;;;;8.47;92.74;98848.14;103998;1308;138091;-79
2023/01/02 10:54:55;;;;;;;55.20;33.40;;;;;;;8.53;92.69;98844.75;103067;1290;22479;-80
2023/01/02 10:57:32;;;;;;;57.50;32.80;;;;;;;8.59;92.24;98842.41;104007;1287;22333;-80
2023/01/02 10:59:59;;;;;;;60.10;32.90;;;;;;;8.66;91.84;98837.20;105204;1306;140243;-80
2023/01/02 11:02:36;;;;;;;50.90;30.20;;;;;;;8.72;91.68;98834.55;104115;1297;27418;-80
2023/01/02 11:05:06;;;;;;;47.20;28.80;;;;;;;8.79;91.44;98831.98;103584;1297;138473;-81
2023/01/02 11:07:37;;;;;;;49.90;29.40;;;;;;;8.85;91.38;98827.04;103876;1290;25328;-80
2023/01/02 11:10:20;;;;;;;45.20;26.20;;;;;;;8.92;91.01;98820.90;104331;1306;22556;-80
2023/01/02 11:12:48;;;;;;;47.60;27.90;;;;;;;9.00;90.90;98816.14;103631;1298;22540;-80
2023/01/02 11:15:33;;;;;;;44.10;25.50;;;;;;;9.06;90.69;98814.39;103270;1290;23330;-79
2023/01/02 11:18:02;;;;;;;37.50;23.00;;;;;;;9.15;90.60;98805.20;103616;1282;138564;-79
2023/01/02 11:20:36;;;;;;;42.90;23.70;;;;;;;9.21;90.44;98801.75;104200;1284;22487;-80
2023/01/02 11:23:04;;;;;;;42.00;23.90;;;;;;;9.30;90.49;98798.19;103225;1289;140023;-80
2023/01/02 11:25:42;;;;;;;40.70;24.40;;;;;;;9.36;90.09;98788.80;104387;1290;22634;-80
2023/01/02 11:28:27;;;;;;;38.70;21.80;;;;;;;9.42;90.34;98785.86;103742;1288;23956;-80
2023/01/02 11:31:02;;;;;;;43.10;23.20;;;;;;;9.48;90.11;98786.20;103670;1292;22491;-80
2023/01/02 11:33:33;;;;;;;41.00;23.70;;;;;;;9.56;90.10;98786.98;103165;1290;25162;-80
2023/01/02 11:36:02;;;;;;;35.90;20.40;;;;;;;9.63;90.12;98788.13;103620;1295;138107;-79